createdAt,value
2022-09-22T00:01:19.589Z,2.07
2022-09-22T00:03:52.432Z,1.87
2022-09-22T00:06:28.076Z,1.93
2022-09-22T00:08:57.733Z,2.23
2022-09-22T00:11:33.351Z,2.77
2022-09-22T00:14:12.365Z,2.73
2022-09-22T00:16:56.016Z,2.40
2022-09-22T00:19:34.373Z,2.10
2022-09-22T00:22:01.423Z,2.00
2022-09-22T00:24:28.764Z,2.17
2022-09-22T00:26:57.417Z,1.93
2022-09-22T00:29:28.973Z,1.83
2022-09-22T00:31:56.617Z,1.60
2022-09-22T00:34:25.929Z,1.77
2022-09-22T00:36:52.548Z,1.83
2022-09-22T00:39:19.302Z,1.73
2022-09-22T00:41:49.577Z,1.80
2022-09-22T00:44:15.860Z,2.23
2022-09-22T00:46:44.652Z,1.93
2022-09-22T00:49:13.937Z,1.90
2022-09-22T00:51:43.272Z,2.40
2022-09-22T00:54:14.197Z,1.57
2022-09-22T00:57:08.034Z,2.30
2022-09-22T00:59:35.995Z,1.80
2022-09-22T01:02:02.447Z,2.10
2022-09-22T01:04:29.810Z,1.30
2022-09-22T01:06:58.728Z,1.83
2022-09-22T01:09:25.802Z,1.90
2022-09-22T01:11:52.888Z,1.50
2022-09-22T01:14:48.702Z,1.80
2022-09-22T01:18:11.238Z,1.67
2022-09-22T01:21:10.981Z,1.40
2022-09-22T01:23:56.038Z,1.57
2022-09-22T01:26:42.542Z,1.80
2022-09-22T01:32:17.126Z,1.97
2022-09-22T01:34:58.757Z,1.70
2022-09-22T01:37:39.561Z,1.43
2022-09-22T01:40:20.215Z,1.40
2022-09-22T01:43:09.277Z,1.70
2022-09-22T01:45:38.853Z,1.63
2022-09-22T01:48:13.503Z,1.43
2022-09-22T01:50:44.985Z,1.47
2022-09-22T01:53:15.149Z,1.63
2022-09-22T01:55:47.340Z,1.70
2022-09-22T01:58:18.505Z,1.77
2022-09-22T02:00:52.003Z,1.67
2022-09-22T02:03:25.650Z,1.87
2022-09-22T02:06:02.507Z,1.73
2022-09-22T02:08:39.889Z,1.57
2022-09-22T02:11:13.916Z,1.80
2022-09-22T02:13:41.617Z,1.43
2022-09-22T02:16:08.633Z,1.70
2022-09-22T02:18:50.201Z,1.33
2022-09-22T02:21:17.332Z,1.77
2022-09-22T02:23:45.117Z,1.67
2022-09-22T02:26:15.341Z,2.10
2022-09-22T02:28:43.924Z,1.70
2022-09-22T02:31:21.161Z,1.50
2022-09-22T02:33:49.749Z,1.57
2022-09-22T02:36:37.669Z,1.63
2022-09-22T02:39:35.148Z,1.60
2022-09-22T02:42:20.559Z,1.70
2022-09-22T02:45:16.394Z,1.83
2022-09-22T02:47:57.190Z,2.00
2022-09-22T02:50:26.947Z,2.10
2022-09-22T02:52:58.746Z,1.70
2022-09-22T02:55:25.351Z,1.67
2022-09-22T02:57:51.711Z,1.30
2022-09-22T03:00:18.100Z,1.60
2022-09-22T03:02:44.491Z,1.40
2022-09-22T03:05:10.920Z,1.40
2022-09-22T03:07:37.404Z,1.70
2022-09-22T03:10:04.606Z,1.77
2022-09-22T03:12:31.037Z,2.10
2022-09-22T03:14:57.449Z,2.20
2022-09-22T03:17:23.822Z,2.70
2022-09-22T03:19:50.190Z,5.67
2022-09-22T03:22:16.595Z,4.60
2022-09-22T03:24:43.059Z,5.40
2022-09-22T03:27:09.435Z,6.43
2022-09-22T03:29:35.902Z,5.40
2022-09-22T03:32:02.419Z,4.43
2022-09-22T03:34:28.974Z,3.57
2022-09-22T03:36:55.314Z,3.70
2022-09-22T03:39:21.661Z,3.00
2022-09-22T03:41:48.147Z,2.53
2022-09-22T03:44:14.503Z,2.87
2022-09-22T03:46:40.845Z,2.20
2022-09-22T03:49:07.207Z,1.87
2022-09-22T03:51:34.232Z,1.77
2022-09-22T03:54:00.929Z,2.00
2022-09-22T03:56:27.419Z,1.90
2022-09-22T03:58:53.790Z,2.07
2022-09-22T04:01:20.208Z,1.90
2022-09-22T04:03:46.705Z,1.87
2022-09-22T04:06:13.420Z,1.43
2022-09-22T04:08:39.815Z,2.20
2022-09-22T04:11:06.822Z,2.23
2022-09-22T04:13:34.238Z,2.50
2022-09-22T04:16:01.335Z,4.47
2022-09-22T04:18:29.413Z,6.20
2022-09-22T04:20:58.080Z,4.47
2022-09-22T04:23:26.044Z,2.70
2022-09-22T04:25:53.171Z,4.27
2022-09-22T04:28:19.542Z,3.30
2022-09-22T04:30:46.993Z,2.53
2022-09-22T04:33:13.495Z,3.70
2022-09-22T04:35:39.934Z,3.47
2022-09-22T04:38:06.390Z,3.43
2022-09-22T04:40:33.789Z,3.33
2022-09-22T04:43:00.248Z,2.43
2022-09-22T04:45:26.763Z,3.00
2022-09-22T04:47:53.577Z,2.60
2022-09-22T04:50:22.349Z,2.57
2022-09-22T04:52:52.211Z,2.43
2022-09-22T04:55:19.008Z,2.83
2022-09-22T04:57:49.504Z,2.23
2022-09-22T05:00:17.164Z,2.20
2022-09-22T05:02:43.797Z,2.37
2022-09-22T05:05:10.444Z,2.60
2022-09-22T05:07:41.589Z,3.17
2022-09-22T05:10:08.511Z,2.50
2022-09-22T05:12:39.121Z,2.90
2022-09-22T05:15:06.388Z,3.30
2022-09-22T05:17:33.494Z,3.40
2022-09-22T05:19:59.881Z,2.90
2022-09-22T05:22:26.244Z,2.57
2022-09-22T05:24:52.605Z,2.97
2022-09-22T05:27:18.980Z,3.90
2022-09-22T05:29:45.357Z,3.23
2022-09-22T05:32:11.766Z,3.53
2022-09-22T05:34:38.138Z,3.37
2022-09-22T05:37:04.518Z,4.00
2022-09-22T05:39:30.933Z,3.93
2022-09-22T05:41:57.341Z,3.87
2022-09-22T05:44:23.785Z,4.20
2022-09-22T05:46:50.191Z,4.30
2022-09-22T05:49:16.607Z,4.80
2022-09-22T05:51:43.309Z,5.07
2022-09-22T05:54:10.080Z,5.10
2022-09-22T05:56:36.489Z,4.90
2022-09-22T05:59:02.855Z,5.30
2022-09-22T06:01:29.315Z,5.83
2022-09-22T06:03:55.716Z,5.97
2022-09-22T06:06:22.127Z,5.30
2022-09-22T06:08:49.308Z,7.37
2022-09-22T06:11:15.781Z,7.43
2022-09-22T06:13:42.147Z,7.83
2022-09-22T06:16:08.565Z,7.33
2022-09-22T06:18:34.973Z,7.50
2022-09-22T06:21:01.379Z,9.07
2022-09-22T06:23:27.806Z,7.87
2022-09-22T06:25:58.552Z,8.17
2022-09-22T06:28:25.304Z,7.50
2022-09-22T06:30:52.000Z,7.80
2022-09-22T06:33:18.793Z,7.40
2022-09-22T06:35:46.198Z,7.20
2022-09-22T06:38:15.263Z,7.17
2022-09-22T06:40:42.794Z,8.87
2022-09-22T06:43:22.720Z,9.37
2022-09-22T06:45:51.228Z,8.83
2022-09-22T06:48:18.509Z,7.47
2022-09-22T06:50:53.365Z,7.90
2022-09-22T06:53:23.251Z,8.53
2022-09-22T06:55:53.703Z,7.57
2022-09-22T06:58:22.073Z,7.07
2022-09-22T07:00:49.000Z,7.50
2022-09-22T07:03:20.905Z,6.83
2022-09-22T07:06:01.904Z,6.80
2022-09-22T07:08:33.776Z,7.90
2022-09-22T07:11:08.067Z,7.63
2022-09-22T07:13:39.845Z,9.13
2022-09-22T07:16:09.672Z,8.77
2022-09-22T07:18:40.201Z,8.70
2022-09-22T07:21:09.085Z,9.20
2022-09-22T07:23:36.161Z,8.47
2022-09-22T07:26:04.712Z,8.20
2022-09-22T07:28:33.015Z,8.57
2022-09-22T07:31:11.533Z,8.50
2022-09-22T07:33:39.886Z,8.70
2022-09-22T07:36:12.429Z,9.50
2022-09-22T07:38:40.276Z,10.73
2022-09-22T07:41:09.881Z,10.00
2022-09-22T07:43:36.318Z,10.93
2022-09-22T07:46:02.743Z,10.47
2022-09-22T07:48:48.203Z,9.87
2022-09-22T07:51:21.551Z,9.13
2022-09-22T07:54:07.255Z,9.87
2022-09-22T07:56:36.516Z,9.87
2022-09-22T07:59:09.787Z,10.13
2022-09-22T08:01:55.051Z,9.87
2022-09-22T08:04:26.367Z,10.97
2022-09-22T08:06:55.516Z,10.60
2022-09-22T08:09:22.951Z,10.93
2022-09-22T08:11:50.048Z,10.80
2022-09-22T08:14:17.488Z,10.30
2022-09-22T08:16:45.774Z,11.27
2022-09-22T08:19:13.515Z,10.57
2022-09-22T08:21:48.780Z,9.50
2022-09-22T08:24:21.400Z,9.77
2022-09-22T08:26:52.678Z,9.50
2022-09-22T08:29:19.650Z,9.67
2022-09-22T08:31:47.463Z,11.20
2022-09-22T08:34:16.270Z,11.27
2022-09-22T08:36:46.396Z,11.20
2022-09-22T08:39:13.017Z,10.50
2022-09-22T08:41:48.435Z,10.10
2022-09-22T08:44:24.496Z,9.80
2022-09-22T08:46:53.342Z,11.40
2022-09-22T08:49:45.859Z,13.80
2022-09-22T08:52:42.424Z,9.60
2022-09-22T08:55:26.509Z,7.70
2022-09-22T08:58:09.093Z,9.40
2022-09-22T09:01:22.162Z,7.60
2022-09-22T09:04:15.401Z,8.20
2022-09-22T09:07:04.037Z,7.50
2022-09-22T09:09:43.543Z,6.57
2022-09-22T09:12:26.898Z,7.20
2022-09-22T09:15:13.754Z,6.13
2022-09-22T09:17:42.484Z,7.00
2022-09-22T09:20:26.397Z,6.33
2022-09-22T09:22:57.530Z,6.90
2022-09-22T09:25:31.383Z,6.23
2022-09-22T09:28:01.765Z,6.63
2022-09-22T09:30:39.800Z,7.23
2022-09-22T09:33:17.948Z,6.83
2022-09-22T09:35:52.943Z,6.33
2022-09-22T09:38:44.746Z,6.33
2022-09-22T09:41:20.627Z,5.87
2022-09-22T09:43:47.416Z,5.10
2022-09-22T09:46:38.694Z,5.23
2022-09-22T09:49:14.923Z,5.47
2022-09-22T09:51:44.807Z,5.13
2022-09-22T09:54:16.908Z,4.57
2022-09-22T09:57:08.233Z,4.90
2022-09-22T09:59:59.996Z,4.57
2022-09-22T10:02:33.212Z,4.43
2022-09-22T10:05:07.567Z,4.50
2022-09-22T10:07:44.391Z,4.57
2022-09-22T10:10:28.806Z,5.00
2022-09-22T10:13:04.391Z,3.80
2022-09-22T10:15:36.825Z,3.50
2022-09-22T10:18:23.945Z,4.20
2022-09-22T10:21:18.283Z,3.37
2022-09-22T10:23:46.814Z,3.70
2022-09-22T10:26:16.770Z,3.73
2022-09-22T10:28:43.211Z,3.67
2022-09-22T10:31:22.245Z,3.27
2022-09-22T10:33:58.178Z,3.63
2022-09-22T10:36:27.006Z,4.60
2022-09-22T10:38:58.856Z,4.20
2022-09-22T10:41:34.084Z,4.03
2022-09-22T10:44:27.440Z,3.90
2022-09-22T10:47:26.943Z,4.10
2022-09-22T10:50:12.543Z,4.60
2022-09-22T10:53:10.661Z,3.77
2022-09-22T10:55:55.748Z,3.90
2022-09-22T10:58:40.905Z,5.00
2022-09-22T11:01:23.891Z,4.57
2022-09-22T11:03:53.066Z,3.53
2022-09-22T11:07:17.123Z,3.57
2022-09-22T11:10:40.213Z,1.97
2022-09-22T11:13:12.497Z,1.60
2022-09-22T11:15:56.434Z,1.40
2022-09-22T11:18:43.257Z,1.73
2022-09-22T11:21:34.798Z,2.17
2022-09-22T11:24:28.062Z,1.87
2022-09-22T11:26:57.261Z,2.30
2022-09-22T11:29:46.802Z,1.90
2022-09-22T11:32:22.177Z,2.27
2022-09-22T11:35:02.220Z,1.80
2022-09-22T11:37:46.854Z,1.43
2022-09-22T11:40:35.974Z,1.90
2022-09-22T11:43:29.904Z,1.30
2022-09-22T11:46:27.431Z,2.17
2022-09-22T11:49:23.088Z,1.37
2022-09-22T11:52:02.437Z,1.30
2022-09-22T11:55:06.397Z,1.47
2022-09-22T11:57:38.056Z,1.33
2022-09-22T12:00:13.117Z,2.20
2022-09-22T12:02:48.944Z,1.60
2022-09-22T12:05:39.903Z,1.90
2022-09-22T12:08:27.871Z,1.40
2022-09-22T12:10:55.793Z,1.47
2022-09-22T12:13:25.494Z,1.30
2022-09-22T12:16:22.409Z,1.87
2022-09-22T12:19:17.000Z,1.40
2022-09-22T12:22:23.103Z,1.70
2022-09-22T12:24:49.568Z,1.60
2022-09-22T12:27:24.964Z,1.50
2022-09-22T12:29:56.659Z,3.40
2022-09-22T12:32:26.296Z,1.60
2022-09-22T12:34:57.580Z,1.30
2022-09-22T12:37:30.973Z,1.30
2022-09-22T12:40:19.220Z,1.50
2022-09-22T12:42:51.125Z,1.50
2022-09-22T12:45:25.175Z,1.90
2022-09-22T12:47:54.500Z,2.63
2022-09-22T12:50:23.940Z,2.80
2022-09-22T12:52:50.576Z,2.00
2022-09-22T12:55:28.739Z,1.37
2022-09-22T12:57:57.807Z,1.90
2022-09-22T13:00:35.681Z,1.77
2022-09-22T13:03:24.722Z,1.80
2022-09-22T13:05:53.412Z,1.30
2022-09-22T13:08:26.123Z,1.20
2022-09-22T13:11:03.329Z,1.97
2022-09-22T13:13:29.673Z,2.63
2022-09-22T13:15:59.755Z,2.10
2022-09-22T13:18:33.499Z,1.50
2022-09-22T13:21:11.870Z,1.73
2022-09-22T13:24:02.661Z,1.93
2022-09-22T13:26:38.960Z,1.70
2022-09-22T13:29:18.217Z,2.53
2022-09-22T13:31:52.848Z,2.00
2022-09-22T13:34:35.293Z,1.43
2022-09-22T13:37:13.230Z,1.43
2022-09-22T13:39:47.103Z,1.20
2022-09-22T13:42:22.276Z,3.10
2022-09-22T13:44:57.415Z,2.53
2022-09-22T13:47:25.200Z,2.10
2022-09-22T13:49:54.930Z,2.40
2022-09-22T13:52:24.823Z,2.20
2022-09-22T13:55:16.628Z,1.40
2022-09-22T13:57:43.128Z,1.20
2022-09-22T14:00:20.698Z,2.00
2022-09-22T14:02:47.205Z,1.10
2022-09-22T14:05:23.453Z,1.27
2022-09-22T14:08:10.728Z,1.50
2022-09-22T14:10:38.093Z,1.50
2022-09-22T14:13:04.511Z,1.80
2022-09-22T14:15:43.745Z,1.30
2022-09-22T14:18:28.011Z,1.60
2022-09-22T14:20:57.256Z,1.63
2022-09-22T14:23:30.455Z,1.73
2022-09-22T14:25:58.908Z,1.60
2022-09-22T14:28:29.054Z,1.30
2022-09-22T14:30:56.037Z,1.20
2022-09-22T14:33:27.081Z,1.30
2022-09-22T14:36:02.923Z,1.00
2022-09-22T14:38:34.273Z,1.13
2022-09-22T14:41:02.781Z,1.30
2022-09-22T14:43:37.072Z,1.10
2022-09-22T14:46:21.833Z,1.13
2022-09-22T14:48:48.395Z,0.80
2022-09-22T14:51:21.979Z,1.67
2022-09-22T14:53:53.513Z,1.33
2022-09-22T14:56:27.666Z,1.20
2022-09-22T14:59:00.836Z,1.00
2022-09-22T15:01:50.099Z,1.23
2022-09-22T15:04:26.359Z,1.20
2022-09-22T15:06:58.954Z,1.20
2022-09-22T15:09:31.883Z,1.40
2022-09-22T15:12:01.807Z,1.33
2022-09-22T15:14:34.138Z,1.20
2022-09-22T15:17:20.409Z,1.30
2022-09-22T15:19:57.059Z,1.97
2022-09-22T15:22:24.441Z,1.93
2022-09-22T15:24:51.327Z,1.27
2022-09-22T15:27:17.757Z,1.90
2022-09-22T15:29:45.609Z,1.10
2022-09-22T15:32:12.879Z,1.20
2022-09-22T15:34:44.767Z,1.47
2022-09-22T15:37:19.273Z,1.13
2022-09-22T15:39:46.038Z,1.03
2022-09-22T15:42:12.627Z,1.30
2022-09-22T15:44:39.311Z,1.10
2022-09-22T15:47:06.476Z,1.20
2022-09-22T15:49:34.990Z,1.17
2022-09-22T15:52:04.821Z,1.63
2022-09-22T15:54:31.585Z,1.40
2022-09-22T15:56:59.859Z,0.97
2022-09-22T15:59:32.188Z,1.10
2022-09-22T16:02:00.502Z,1.10
2022-09-22T16:04:34.126Z,1.87
2022-09-22T16:07:05.652Z,0.90
2022-09-22T16:09:32.058Z,1.73
2022-09-22T16:11:58.998Z,1.20
2022-09-22T16:14:25.440Z,0.90
2022-09-22T16:16:52.231Z,1.20
2022-09-22T16:19:18.653Z,1.10
2022-09-22T16:21:54.167Z,1.20
2022-09-22T16:24:22.437Z,1.13
2022-09-22T16:26:49.649Z,1.00
2022-09-22T16:29:16.484Z,1.63
2022-09-22T16:31:42.931Z,1.67
2022-09-22T16:34:09.495Z,1.10
2022-09-22T16:36:36.409Z,1.37
2022-09-22T16:39:04.002Z,1.53
2022-09-22T16:41:35.134Z,1.40
2022-09-22T16:44:02.620Z,1.60
2022-09-22T16:46:31.450Z,1.53
2022-09-22T16:49:12.708Z,1.90
2022-09-22T16:51:41.795Z,4.90
2022-09-22T16:54:13.602Z,6.10
2022-09-22T16:56:43.070Z,3.70
2022-09-22T16:59:10.030Z,5.30
2022-09-22T17:01:37.962Z,5.93
2022-09-22T17:04:06.028Z,3.70
2022-09-22T17:06:32.804Z,3.40
2022-09-22T17:08:59.452Z,4.00
2022-09-22T17:11:29.731Z,2.77
2022-09-22T17:14:01.380Z,3.53
2022-09-22T17:16:30.385Z,4.77
2022-09-22T17:19:03.114Z,2.53
2022-09-22T17:21:34.229Z,1.90
2022-09-22T17:24:01.817Z,1.60
2022-09-22T17:26:29.504Z,2.77
2022-09-22T17:28:56.469Z,4.90
2022-09-22T17:31:23.634Z,3.83
2022-09-22T17:33:52.344Z,3.40
2022-09-22T17:36:21.067Z,2.20
2022-09-22T17:38:50.672Z,2.20
2022-09-22T17:41:21.883Z,1.90
2022-09-22T17:43:53.143Z,2.17
2022-09-22T17:46:20.527Z,3.30
2022-09-22T17:49:05.887Z,2.90
2022-09-22T17:51:56.733Z,4.40
2022-09-22T17:54:45.835Z,2.03
2022-09-22T17:57:15.038Z,2.30
2022-09-22T17:59:41.840Z,2.13
2022-09-22T18:02:11.120Z,1.80
2022-09-22T18:04:41.101Z,2.00
2022-09-22T18:07:09.635Z,1.40
2022-09-22T18:09:38.298Z,1.70
2022-09-22T18:12:06.886Z,1.90
2022-09-22T18:14:39.115Z,2.30
2022-09-22T18:17:06.612Z,1.50
2022-09-22T18:19:36.784Z,1.90
2022-09-22T18:22:06.136Z,1.70
2022-09-22T18:24:33.641Z,1.80
2022-09-22T18:27:03.911Z,1.80
2022-09-22T18:29:32.024Z,1.60
2022-09-22T18:31:59.733Z,1.40
2022-09-22T18:34:31.719Z,2.23
2022-09-22T18:37:04.041Z,2.17
2022-09-22T18:39:35.134Z,2.27
2022-09-22T18:42:01.658Z,1.97
2022-09-22T18:44:30.585Z,1.30
2022-09-22T18:47:01.168Z,1.27
2022-09-22T18:49:31.841Z,1.30
2022-09-22T18:52:00.276Z,1.30
2022-09-22T18:54:29.388Z,1.07
2022-09-22T18:56:56.559Z,1.67
2022-09-22T18:59:26.064Z,1.83
2022-09-22T19:01:53.539Z,1.17
2022-09-22T19:04:22.806Z,1.63
2022-09-22T19:07:15.413Z,1.90
2022-09-22T19:09:42.562Z,1.50
2022-09-22T19:12:10.288Z,1.60
2022-09-22T19:14:39.637Z,2.60
2022-09-22T19:17:11.929Z,2.57
2022-09-22T19:19:42.366Z,1.27
2022-09-22T19:22:10.488Z,1.40
2022-09-22T19:24:38.850Z,1.33
2022-09-22T19:27:06.753Z,1.63
2022-09-22T19:29:33.412Z,1.33
2022-09-22T19:32:01.065Z,1.70
2022-09-22T19:34:28.519Z,1.53
2022-09-22T19:36:55.898Z,1.63
2022-09-22T19:39:23.485Z,1.67
2022-09-22T19:41:50.925Z,1.43
2022-09-22T19:44:19.660Z,1.57
2022-09-22T19:46:47.673Z,1.40
2022-09-22T19:49:15.655Z,1.40
2022-09-22T19:51:42.635Z,1.30
2022-09-22T19:54:09.689Z,1.70
2022-09-22T19:56:36.184Z,1.90
2022-09-22T19:59:04.563Z,1.50
2022-09-22T20:01:33.765Z,1.57
2022-09-22T20:04:00.353Z,1.87
2022-09-22T20:06:27.863Z,2.00
2022-09-22T20:09:02.754Z,2.23
2022-09-22T20:11:34.459Z,2.27
2022-09-22T20:14:19.898Z,2.97
2022-09-22T20:16:59.655Z,2.83
2022-09-22T20:19:27.246Z,3.27
2022-09-22T20:22:20.978Z,3.27
2022-09-22T20:24:53.867Z,2.77
2022-09-22T20:27:22.857Z,2.10
2022-09-22T20:29:52.128Z,1.97
2022-09-22T20:32:23.812Z,2.50
2022-09-22T20:34:51.211Z,1.93
2022-09-22T20:37:17.640Z,1.97
2022-09-22T20:39:44.262Z,3.00
2022-09-22T20:42:13.473Z,2.70
2022-09-22T20:44:43.466Z,2.63
2022-09-22T20:47:14.124Z,3.03
2022-09-22T20:49:45.039Z,3.23
2022-09-22T20:52:15.783Z,3.50
2022-09-22T20:54:46.276Z,3.40
2022-09-22T20:57:14.014Z,3.30
2022-09-22T20:59:40.405Z,2.60
2022-09-22T21:02:07.203Z,2.20
2022-09-22T21:04:34.048Z,1.90
2022-09-22T21:07:00.540Z,2.23
2022-09-22T21:09:45.672Z,2.07
2022-09-22T21:12:13.409Z,1.80
2022-09-22T21:14:39.752Z,2.10
2022-09-22T21:17:09.002Z,1.87
2022-09-22T21:19:36.468Z,2.17
2022-09-22T21:22:03.452Z,1.97
2022-09-22T21:24:31.128Z,2.33
2022-09-22T21:26:57.481Z,1.70
2022-09-22T21:29:23.928Z,1.67
2022-09-22T21:31:50.527Z,1.60
2022-09-22T21:34:18.340Z,1.40
2022-09-22T21:36:45.137Z,1.60
2022-09-22T21:39:11.822Z,1.80
2022-09-22T21:41:38.274Z,1.90
2022-09-22T21:44:05.769Z,1.60
2022-09-22T21:46:33.285Z,2.00
2022-09-22T21:49:02.068Z,1.77
2022-09-22T21:51:31.044Z,1.67
2022-09-22T21:53:57.435Z,1.83
2022-09-22T21:56:25.704Z,1.73
2022-09-22T21:58:54.398Z,1.53
2022-09-22T22:01:23.563Z,1.27
2022-09-22T22:03:52.043Z,1.90
2022-09-22T22:06:26.629Z,1.80
2022-09-22T22:08:55.433Z,2.33
2022-09-22T22:11:25.656Z,2.47
2022-09-22T22:13:53.911Z,2.10
2022-09-22T22:16:23.358Z,1.97
2022-09-22T22:18:50.278Z,1.73
2022-09-22T22:21:29.336Z,1.60
2022-09-22T22:24:20.314Z,1.40
2022-09-22T22:26:51.973Z,2.00
2022-09-22T22:29:19.688Z,1.93
2022-09-22T22:31:48.952Z,1.60
2022-09-22T22:34:17.919Z,2.37
2022-09-22T22:36:44.271Z,2.30
2022-09-22T22:39:11.562Z,2.20
2022-09-22T22:41:39.322Z,2.40
2022-09-22T22:44:07.082Z,2.17
2022-09-22T22:46:34.125Z,1.83
2022-09-22T22:49:00.878Z,2.37
2022-09-22T22:51:27.510Z,2.00
2022-09-22T22:53:57.632Z,1.77
2022-09-22T22:56:26.681Z,1.63
2022-09-22T22:58:53.692Z,1.90
2022-09-22T23:01:23.085Z,1.87
2022-09-22T23:03:55.728Z,2.20
2022-09-22T23:06:30.302Z,2.00
2022-09-22T23:08:56.812Z,1.80
2022-09-22T23:11:29.830Z,2.03
2022-09-22T23:14:03.093Z,1.63
2022-09-22T23:16:36.075Z,2.00
2022-09-22T23:19:06.744Z,1.67
2022-09-22T23:21:33.959Z,1.70
2022-09-22T23:24:01.167Z,2.00
2022-09-22T23:26:29.684Z,1.97
2022-09-22T23:28:58.485Z,1.80
2022-09-22T23:31:25.426Z,1.77
2022-09-22T23:33:52.547Z,1.90
2022-09-22T23:36:24.307Z,1.70
2022-09-22T23:38:55.463Z,1.70
2022-09-22T23:41:22.009Z,2.13
2022-09-22T23:43:48.357Z,2.10
2022-09-22T23:46:14.800Z,1.90
2022-09-22T23:48:41.320Z,2.17
2022-09-22T23:51:07.695Z,2.13
2022-09-22T23:53:36.578Z,1.97
2022-09-22T23:56:05.556Z,1.57
2022-09-22T23:58:32.673Z,1.90
